sensor_id;sensor_type;location;lat;lon;timestamp;pressure;altitude;pressure_sealevel;temperature;humidity
64115;BME280;62188;35.640;139.748;2022-10-29T00:00:12;102105.88;;;25.69;23.79
64115;BME280;62188;35.640;139.748;2022-10-29T00:02:37;102110.71;;;26.05;23.77
64115;BME280;62188;35.640;139.748;2022-10-29T00:05:02;102111.98;;;25.85;23.38
64115;BME280;62188;35.640;139.748;2022-10-29T00:07:27;102106.83;;;25.95;23.62
64115;BME280;62188;35.640;139.748;2022-10-29T00:09:53;102102.14;;;25.93;23.12
64115;BME280;62188;35.640;139.748;2022-10-29T00:12:18;102105.56;;;25.58;23.56
64115;BME280;62188;35.640;139.748;2022-10-29T00:14:43;102098.49;;;25.69;23.48
64115;BME280;62188;35.640;139.748;2022-10-29T00:17:09;102099.17;;;25.74;23.55
64115;BME280;62188;35.640;139.748;2022-10-29T00:19:35;102093.81;;;25.70;24.01
64115;BME280;62188;35.640;139.748;2022-10-29T00:22:00;102086.75;;;26.10;24.22
64115;BME280;62188;35.640;139.748;2022-10-29T00:24:26;102079.06;;;26.17;23.68
64115;BME280;62188;35.640;139.748;2022-10-29T00:26:51;102079.34;;;26.36;24.42
64115;BME280;62188;35.640;139.748;2022-10-29T00:29:16;102074.65;;;26.32;23.28
64115;BME280;62188;35.640;139.748;2022-10-29T00:31:42;102080.27;;;26.40;24.52
64115;BME280;62188;35.640;139.748;2022-10-29T00:34:07;102079.57;;;26.58;23.86
64115;BME280;62188;35.640;139.748;2022-10-29T00:36:32;102075.31;;;26.28;23.39
64115;BME280;62188;35.640;139.748;2022-10-29T00:38:58;102073.21;;;26.48;23.58
64115;BME280;62188;35.640;139.748;2022-10-29T00:41:28;102070.50;;;26.57;24.15
64115;BME280;62188;35.640;139.748;2022-10-29T00:43:51;102065.32;;;26.60;23.15
64115;BME280;62188;35.640;139.748;2022-10-29T00:46:19;102063.23;;;26.53;23.57
64115;BME280;62188;35.640;139.748;2022-10-29T00:48:44;102064.82;;;26.42;23.29
64115;BME280;62188;35.640;139.748;2022-10-29T00:51:08;102064.75;;;26.61;22.73
64115;BME280;62188;35.640;139.748;2022-10-29T00:53:35;102061.03;;;26.65;23.07
64115;BME280;62188;35.640;139.748;2022-10-29T00:55:56;102061.58;;;26.86;22.86
64115;BME280;62188;35.640;139.748;2022-10-29T00:58:21;102056.14;;;26.59;22.63
64115;BME280;62188;35.640;139.748;2022-10-29T01:00:47;102056.96;;;26.46;22.47
64115;BME280;62188;35.640;139.748;2022-10-29T01:03:12;102054.17;;;26.79;22.94
64115;BME280;62188;35.640;139.748;2022-10-29T01:05:38;102054.68;;;26.59;22.52
64115;BME280;62188;35.640;139.748;2022-10-29T01:08:04;102051.38;;;26.52;22.62
64115;BME280;62188;35.640;139.748;2022-10-29T01:10:37;102049.24;;;26.72;22.65
64115;BME280;62188;35.640;139.748;2022-10-29T01:13:06;102045.88;;;26.82;22.38
64115;BME280;62188;35.640;139.748;2022-10-29T01:15:25;102044.64;;;26.89;22.59
64115;BME280;62188;35.640;139.748;2022-10-29T01:17:54;102042.02;;;27.24;22.60
64115;BME280;62188;35.640;139.748;2022-10-29T01:22:40;102040.17;;;27.30;21.65
64115;BME280;62188;35.640;139.748;2022-10-29T01:25:21;102041.31;;;27.18;21.80
64115;BME280;62188;35.640;139.748;2022-10-29T01:30:02;102036.19;;;27.41;21.58
64115;BME280;62188;35.640;139.748;2022-10-29T01:32:21;102030.02;;;27.05;21.50
64115;BME280;62188;35.640;139.748;2022-10-29T01:34:48;102029.62;;;27.29;21.80
64115;BME280;62188;35.640;139.748;2022-10-29T01:37:13;102028.94;;;27.08;22.01
64115;BME280;62188;35.640;139.748;2022-10-29T01:39:39;102026.75;;;27.14;21.22
64115;BME280;62188;35.640;139.748;2022-10-29T01:42:04;102028.24;;;27.37;21.90
64115;BME280;62188;35.640;139.748;2022-10-29T01:44:33;102025.10;;;27.30;21.35
64115;BME280;62188;35.640;139.748;2022-10-29T01:46:54;102024.96;;;27.85;21.45
64115;BME280;62188;35.640;139.748;2022-10-29T01:49:18;102022.52;;;27.88;20.88
64115;BME280;62188;35.640;139.748;2022-10-29T01:51:40;102018.66;;;27.73;20.48
64115;BME280;62188;35.640;139.748;2022-10-29T01:54:09;102015.56;;;27.64;20.84
64115;BME280;62188;35.640;139.748;2022-10-29T01:56:31;102011.14;;;27.69;20.66
64115;BME280;62188;35.640;139.748;2022-10-29T01:58:58;102007.54;;;27.72;20.33
64115;BME280;62188;35.640;139.748;2022-10-29T02:01:38;102006.01;;;27.46;20.37
64115;BME280;62188;35.640;139.748;2022-10-29T02:03:55;102001.03;;;27.54;20.71
64115;BME280;62188;35.640;139.748;2022-10-29T02:06:19;101998.07;;;27.64;20.42
64115;BME280;62188;35.640;139.748;2022-10-29T02:08:43;101990.01;;;27.78;20.41
64115;BME280;62188;35.640;139.748;2022-10-29T02:11:10;101989.75;;;27.56;20.80
64115;BME280;62188;35.640;139.748;2022-10-29T02:13:32;101987.18;;;27.55;20.50
64115;BME280;62188;35.640;139.748;2022-10-29T02:15:55;101986.00;;;27.60;20.96
64115;BME280;62188;35.640;139.748;2022-10-29T02:18:20;101981.88;;;28.16;20.85
64115;BME280;62188;35.640;139.748;2022-10-29T02:20:46;101973.06;;;28.10;21.14
64115;BME280;62188;35.640;139.748;2022-10-29T02:23:11;101974.72;;;28.43;20.95
64115;BME280;62188;35.640;139.748;2022-10-29T02:25:36;101968.22;;;28.49;20.81
64115;BME280;62188;35.640;139.748;2022-10-29T02:28:01;101966.20;;;28.68;20.33
64115;BME280;62188;35.640;139.748;2022-10-29T02:30:27;101961.61;;;28.52;20.47
64115;BME280;62188;35.640;139.748;2022-10-29T02:32:52;101952.42;;;28.64;20.91
64115;BME280;62188;35.640;139.748;2022-10-29T02:35:18;101950.47;;;28.80;20.95
64115;BME280;62188;35.640;139.748;2022-10-29T02:37:43;101945.56;;;28.86;20.50
64115;BME280;62188;35.640;139.748;2022-10-29T02:40:09;101945.08;;;28.87;20.02
64115;BME280;62188;35.640;139.748;2022-10-29T02:42:34;101938.54;;;28.90;19.96
64115;BME280;62188;35.640;139.748;2022-10-29T02:44:59;101936.88;;;28.97;20.37
64115;BME280;62188;35.640;139.748;2022-10-29T02:47:24;101934.41;;;28.90;20.68
64115;BME280;62188;35.640;139.748;2022-10-29T02:49:50;101928.08;;;29.07;20.23
64115;BME280;62188;35.640;139.748;2022-10-29T02:52:14;101926.86;;;28.90;19.45
64115;BME280;62188;35.640;139.748;2022-10-29T02:54:40;101921.91;;;28.80;19.79
64115;BME280;62188;35.640;139.748;2022-10-29T02:57:06;101922.10;;;28.58;19.37
64115;BME280;62188;35.640;139.748;2022-10-29T02:59:31;101920.15;;;28.56;19.60
64115;BME280;62188;35.640;139.748;2022-10-29T03:01:56;101916.08;;;29.19;20.08
64115;BME280;62188;35.640;139.748;2022-10-29T03:04:21;101911.05;;;28.55;19.32
64115;BME280;62188;35.640;139.748;2022-10-29T03:06:47;101905.52;;;28.46;19.28
64115;BME280;62188;35.640;139.748;2022-10-29T03:09:12;101901.33;;;28.51;18.98
64115;BME280;62188;35.640;139.748;2022-10-29T03:11:38;101894.34;;;28.83;18.87
64115;BME280;62188;35.640;139.748;2022-10-29T03:14:03;101888.89;;;28.81;18.54
64115;BME280;62188;35.640;139.748;2022-10-29T03:16:29;101882.31;;;28.81;18.46
64115;BME280;62188;35.640;139.748;2022-10-29T03:18:54;101884.07;;;28.78;18.56
64115;BME280;62188;35.640;139.748;2022-10-29T03:21:19;101881.49;;;28.69;18.30
64115;BME280;62188;35.640;139.748;2022-10-29T03:23:45;101875.94;;;28.77;18.02
64115;BME280;62188;35.640;139.748;2022-10-29T03:26:10;101871.97;;;28.72;17.75
64115;BME280;62188;35.640;139.748;2022-10-29T03:28:36;101869.91;;;28.88;18.18
64115;BME280;62188;35.640;139.748;2022-10-29T03:31:01;101869.00;;;29.20;18.14
64115;BME280;62188;35.640;139.748;2022-10-29T03:33:26;101862.60;;;29.20;18.09
64115;BME280;62188;35.640;139.748;2022-10-29T03:35:55;101861.28;;;28.88;18.30
64115;BME280;62188;35.640;139.748;2022-10-29T03:38:17;101861.41;;;28.90;18.34
64115;BME280;62188;35.640;139.748;2022-10-29T03:40:43;101853.24;;;29.08;18.65
64115;BME280;62188;35.640;139.748;2022-10-29T03:43:08;101854.74;;;29.31;18.19
64115;BME280;62188;35.640;139.748;2022-10-29T03:45:33;101849.89;;;29.44;18.06
64115;BME280;62188;35.640;139.748;2022-10-29T03:47:58;101849.17;;;29.20;17.49
64115;BME280;62188;35.640;139.748;2022-10-29T03:50:23;101841.90;;;29.20;17.42
64115;BME280;62188;35.640;139.748;2022-10-29T03:52:49;101834.67;;;29.43;17.11
64115;BME280;62188;35.640;139.748;2022-10-29T03:55:14;101833.69;;;29.73;17.05
64115;BME280;62188;35.640;139.748;2022-10-29T03:57:40;101832.23;;;29.48;17.54
64115;BME280;62188;35.640;139.748;2022-10-29T04:00:06;101832.77;;;29.68;16.88
64115;BME280;62188;35.640;139.748;2022-10-29T04:02:30;101828.30;;;29.49;16.18
64115;BME280;62188;35.640;139.748;2022-10-29T04:04:55;101822.53;;;29.58;17.05
64115;BME280;62188;35.640;139.748;2022-10-29T04:07:21;101822.92;;;29.79;16.97
64115;BME280;62188;35.640;139.748;2022-10-29T04:09:46;101821.45;;;29.77;16.60
64115;BME280;62188;35.640;139.748;2022-10-29T04:12:12;101816.81;;;30.23;16.14
64115;BME280;62188;35.640;139.748;2022-10-29T04:14:37;101820.34;;;30.04;15.70
64115;BME280;62188;35.640;139.748;2022-10-29T04:17:02;101817.42;;;29.76;16.12
64115;BME280;62188;35.640;139.748;2022-10-29T04:19:28;101817.69;;;29.75;16.41
64115;BME280;62188;35.640;139.748;2022-10-29T04:21:53;101818.24;;;29.58;16.96
64115;BME280;62188;35.640;139.748;2022-10-29T04:24:19;101816.33;;;29.05;16.27
64115;BME280;62188;35.640;139.748;2022-10-29T04:26:44;101818.71;;;28.17;16.39
64115;BME280;62188;35.640;139.748;2022-10-29T04:29:09;101815.04;;;27.78;16.43
64115;BME280;62188;35.640;139.748;2022-10-29T04:31:35;101819.17;;;27.24;16.84
64115;BME280;62188;35.640;139.748;2022-10-29T04:34:00;101814.71;;;27.30;17.12
64115;BME280;62188;35.640;139.748;2022-10-29T04:36:25;101816.07;;;26.65;17.71
64115;BME280;62188;35.640;139.748;2022-10-29T04:38:51;101811.53;;;26.65;17.85
64115;BME280;62188;35.640;139.748;2022-10-29T04:41:16;101810.76;;;26.31;17.46
64115;BME280;62188;35.640;139.748;2022-10-29T04:43:41;101805.66;;;26.10;17.26
64115;BME280;62188;35.640;139.748;2022-10-29T04:46:08;101809.88;;;25.98;17.36
64115;BME280;62188;35.640;139.748;2022-10-29T04:48:33;101811.41;;;25.66;17.75
64115;BME280;62188;35.640;139.748;2022-10-29T04:50:58;101806.62;;;25.42;18.38
64115;BME280;62188;35.640;139.748;2022-10-29T04:53:23;101806.51;;;25.27;18.65
64115;BME280;62188;35.640;139.748;2022-10-29T04:55:49;101804.11;;;25.12;19.44
64115;BME280;62188;35.640;139.748;2022-10-29T04:58:15;101801.17;;;25.43;19.20
64115;BME280;62188;35.640;139.748;2022-10-29T05:00:40;101800.27;;;25.22;19.84
64115;BME280;62188;35.640;139.748;2022-10-29T05:03:05;101797.45;;;25.02;19.88
64115;BME280;62188;35.640;139.748;2022-10-29T05:05:31;101797.56;;;24.80;19.02
64115;BME280;62188;35.640;139.748;2022-10-29T05:08:00;101800.78;;;24.63;20.01
64115;BME280;62188;35.640;139.748;2022-10-29T05:10:21;101799.83;;;24.59;19.79
64115;BME280;62188;35.640;139.748;2022-10-29T05:12:47;101800.20;;;24.51;19.60
64115;BME280;62188;35.640;139.748;2022-10-29T05:15:12;101800.46;;;24.90;19.64
64115;BME280;62188;35.640;139.748;2022-10-29T05:17:38;101803.32;;;24.65;19.45
64115;BME280;62188;35.640;139.748;2022-10-29T05:20:04;101804.03;;;24.53;19.68
64115;BME280;62188;35.640;139.748;2022-10-29T05:22:28;101805.51;;;24.34;20.17
64115;BME280;62188;35.640;139.748;2022-10-29T05:24:54;101813.08;;;24.31;20.24
64115;BME280;62188;35.640;139.748;2022-10-29T05:27:19;101815.82;;;24.33;20.59
64115;BME280;62188;35.640;139.748;2022-10-29T05:29:45;101812.87;;;24.29;20.08
64115;BME280;62188;35.640;139.748;2022-10-29T05:32:11;101810.46;;;24.22;20.07
64115;BME280;62188;35.640;139.748;2022-10-29T05:34:36;101800.61;;;24.39;20.01
64115;BME280;62188;35.640;139.748;2022-10-29T05:37:01;101811.24;;;24.10;19.60
64115;BME280;62188;35.640;139.748;2022-10-29T05:39:27;101813.89;;;24.05;19.85
64115;BME280;62188;35.640;139.748;2022-10-29T05:41:52;101814.54;;;23.98;20.10
64115;BME280;62188;35.640;139.748;2022-10-29T05:44:17;101817.03;;;23.98;20.27
64115;BME280;62188;35.640;139.748;2022-10-29T05:46:43;101817.91;;;23.97;20.66
64115;BME280;62188;35.640;139.748;2022-10-29T05:49:08;101819.65;;;23.79;20.24
64115;BME280;62188;35.640;139.748;2022-10-29T05:51:34;101817.29;;;24.12;20.19
64115;BME280;62188;35.640;139.748;2022-10-29T05:53:59;101821.26;;;24.13;20.37
64115;BME280;62188;35.640;139.748;2022-10-29T05:56:25;101821.14;;;24.09;20.37
64115;BME280;62188;35.640;139.748;2022-10-29T05:58:50;101821.93;;;23.95;19.76
64115;BME280;62188;35.640;139.748;2022-10-29T06:01:15;101825.61;;;23.91;19.85
64115;BME280;62188;35.640;139.748;2022-10-29T06:03:41;101832.64;;;23.81;19.69
64115;BME280;62188;35.640;139.748;2022-10-29T06:06:07;101831.86;;;23.74;19.48
64115;BME280;62188;35.640;139.748;2022-10-29T06:08:32;101835.60;;;23.63;19.34
64115;BME280;62188;35.640;139.748;2022-10-29T06:11:01;101835.25;;;23.62;19.32
64115;BME280;62188;35.640;139.748;2022-10-29T06:13:23;101836.06;;;23.32;19.51
64115;BME280;62188;35.640;139.748;2022-10-29T06:15:49;101841.43;;;23.56;19.58
64115;BME280;62188;35.640;139.748;2022-10-29T06:18:14;101841.96;;;23.29;19.51
64115;BME280;62188;35.640;139.748;2022-10-29T06:20:39;101845.02;;;23.18;19.49
64115;BME280;62188;35.640;139.748;2022-10-29T06:23:05;101844.94;;;23.27;19.50
64115;BME280;62188;35.640;139.748;2022-10-29T06:25:30;101848.53;;;23.50;19.72
64115;BME280;62188;35.640;139.748;2022-10-29T06:28:00;101846.72;;;23.53;19.75
64115;BME280;62188;35.640;139.748;2022-10-29T06:30:21;101840.88;;;23.58;19.63
64115;BME280;62188;35.640;139.748;2022-10-29T06:32:47;101845.50;;;23.35;20.39
64115;BME280;62188;35.640;139.748;2022-10-29T06:35:12;101844.58;;;23.60;20.17
64115;BME280;62188;35.640;139.748;2022-10-29T06:37:38;101846.31;;;23.41;19.99
64115;BME280;62188;35.640;139.748;2022-10-29T06:40:03;101842.81;;;23.67;19.70
64115;BME280;62188;35.640;139.748;2022-10-29T06:42:28;101846.96;;;23.32;19.90
64115;BME280;62188;35.640;139.748;2022-10-29T06:44:53;101848.39;;;23.36;20.68
64115;BME280;62188;35.640;139.748;2022-10-29T06:47:19;101845.13;;;23.40;20.31
64115;BME280;62188;35.640;139.748;2022-10-29T06:49:44;101847.07;;;23.40;20.22
64115;BME280;62188;35.640;139.748;2022-10-29T06:52:10;101846.61;;;23.38;19.96
64115;BME280;62188;35.640;139.748;2022-10-29T06:54:35;101849.21;;;23.45;20.32
64115;BME280;62188;35.640;139.748;2022-10-29T06:57:00;101847.21;;;23.47;20.10
64115;BME280;62188;35.640;139.748;2022-10-29T06:59:26;101849.48;;;23.44;19.76
64115;BME280;62188;35.640;139.748;2022-10-29T07:01:52;101848.09;;;23.30;19.48
64115;BME280;62188;35.640;139.748;2022-10-29T07:04:17;101850.36;;;23.33;19.96
64115;BME280;62188;35.640;139.748;2022-10-29T07:06:42;101849.55;;;23.39;20.44
64115;BME280;62188;35.640;139.748;2022-10-29T07:09:08;101850.65;;;23.42;20.57
64115;BME280;62188;35.640;139.748;2022-10-29T07:11:33;101851.25;;;23.43;20.57
64115;BME280;62188;35.640;139.748;2022-10-29T07:13:59;101851.88;;;23.47;20.40
64115;BME280;62188;35.640;139.748;2022-10-29T07:16:25;101847.37;;;23.51;20.77
64115;BME280;62188;35.640;139.748;2022-10-29T07:18:50;101851.49;;;23.52;20.67
64115;BME280;62188;35.640;139.748;2022-10-29T07:21:15;101851.06;;;23.44;20.06
64115;BME280;62188;35.640;139.748;2022-10-29T07:23:41;101850.52;;;23.42;20.34
64115;BME280;62188;35.640;139.748;2022-10-29T07:26:06;101847.15;;;23.40;20.31
64115;BME280;62188;35.640;139.748;2022-10-29T07:28:32;101850.42;;;23.62;20.42
64115;BME280;62188;35.640;139.748;2022-10-29T07:30:59;101849.31;;;23.38;20.19
64115;BME280;62188;35.640;139.748;2022-10-29T07:33:23;101850.06;;;23.60;20.77
64115;BME280;62188;35.640;139.748;2022-10-29T07:35:48;101851.38;;;23.36;20.74
64115;BME280;62188;35.640;139.748;2022-10-29T07:38:14;101849.33;;;23.33;20.48
64115;BME280;62188;35.640;139.748;2022-10-29T07:43:05;101854.54;;;23.19;20.24
64115;BME280;62188;35.640;139.748;2022-10-29T07:45:30;101854.93;;;23.38;20.36
64115;BME280;62188;35.640;139.748;2022-10-29T07:48:02;101857.20;;;23.09;20.81
64115;BME280;62188;35.640;139.748;2022-10-29T07:50:20;101860.38;;;23.36;20.93
64115;BME280;62188;35.640;139.748;2022-10-29T07:52:46;101862.97;;;23.57;20.73
64115;BME280;62188;35.640;139.748;2022-10-29T07:55:12;101863.68;;;23.32;20.59
64115;BME280;62188;35.640;139.748;2022-10-29T07:57:37;101865.41;;;23.53;20.99
64115;BME280;62188;35.640;139.748;2022-10-29T08:00:03;101865.62;;;23.26;20.96
64115;BME280;62188;35.640;139.748;2022-10-29T08:02:28;101872.21;;;23.19;20.85
64115;BME280;62188;35.640;139.748;2022-10-29T08:04:53;101875.29;;;23.14;20.93
64115;BME280;62188;35.640;139.748;2022-10-29T08:07:19;101877.32;;;22.87;21.20
64115;BME280;62188;35.640;139.748;2022-10-29T08:09:45;101881.41;;;22.87;21.43
64115;BME280;62188;35.640;139.748;2022-10-29T08:12:11;101880.29;;;23.09;21.43
64115;BME280;62188;35.640;139.748;2022-10-29T08:14:35;101883.42;;;22.80;21.44
64115;BME280;62188;35.640;139.748;2022-10-29T08:17:01;101885.21;;;23.03;21.32
64115;BME280;62188;35.640;139.748;2022-10-29T08:19:26;101889.62;;;23.27;21.68
64115;BME280;62188;35.640;139.748;2022-10-29T08:21:52;101890.80;;;23.05;22.15
64115;BME280;62188;35.640;139.748;2022-10-29T08:24:17;101891.58;;;23.31;22.52
64115;BME280;62188;35.640;139.748;2022-10-29T08:26:43;101892.03;;;23.03;21.64
64115;BME280;62188;35.640;139.748;2022-10-29T08:29:08;101896.16;;;23.24;21.74
64115;BME280;62188;35.640;139.748;2022-10-29T08:31:33;101898.32;;;23.23;21.78
64115;BME280;62188;35.640;139.748;2022-10-29T08:33:59;101901.00;;;23.20;21.89
64115;BME280;62188;35.640;139.748;2022-10-29T08:36:24;101904.53;;;22.95;21.52
64115;BME280;62188;35.640;139.748;2022-10-29T08:38:50;101904.80;;;22.95;21.54
64115;BME280;62188;35.640;139.748;2022-10-29T08:41:28;101906.08;;;22.94;21.35
64115;BME280;62188;35.640;139.748;2022-10-29T08:43:58;101911.97;;;22.92;21.18
64115;BME280;62188;35.640;139.748;2022-10-29T08:46:17;101917.06;;;22.87;21.28
64115;BME280;62188;35.640;139.748;2022-10-29T08:48:38;101922.48;;;22.83;21.37
64115;BME280;62188;35.640;139.748;2022-10-29T08:51:00;101925.75;;;23.04;21.59
64115;BME280;62188;35.640;139.748;2022-10-29T08:53:26;101929.86;;;22.94;21.12
64115;BME280;62188;35.640;139.748;2022-10-29T08:55:48;101935.71;;;22.86;21.21
64115;BME280;62188;35.640;139.748;2022-10-29T08:58:20;101941.98;;;22.67;21.86
64115;BME280;62188;35.640;139.748;2022-10-29T09:00:41;101942.99;;;22.89;21.68
64115;BME280;62188;35.640;139.748;2022-10-29T09:03:11;101947.49;;;22.49;21.41
64115;BME280;62188;35.640;139.748;2022-10-29T09:05:35;101943.80;;;22.59;21.30
64115;BME280;62188;35.640;139.748;2022-10-29T09:08:05;101946.05;;;22.55;21.34
64115;BME280;62188;35.640;139.748;2022-10-29T09:10:26;101949.00;;;22.30;21.27
64115;BME280;62188;35.640;139.748;2022-10-29T09:12:57;101956.07;;;22.07;21.16
64115;BME280;62188;35.640;139.748;2022-10-29T09:17:43;101968.51;;;21.96;21.52
64115;BME280;62188;35.640;139.748;2022-10-29T09:22:34;101981.18;;;22.32;22.40
64115;BME280;62188;35.640;139.748;2022-10-29T09:25:00;101979.66;;;22.32;22.16
64115;BME280;62188;35.640;139.748;2022-10-29T09:27:23;101980.16;;;22.39;22.02
64115;BME280;62188;35.640;139.748;2022-10-29T09:29:59;101983.24;;;22.10;22.13
64115;BME280;62188;35.640;139.748;2022-10-29T09:32:14;101980.32;;;22.05;22.67
64115;BME280;62188;35.640;139.748;2022-10-29T09:34:40;101986.82;;;22.30;22.49
64115;BME280;62188;35.640;139.748;2022-10-29T09:37:01;101985.21;;;21.95;22.01
64115;BME280;62188;35.640;139.748;2022-10-29T09:39:31;101985.70;;;22.22;22.46
64115;BME280;62188;35.640;139.748;2022-10-29T09:41:54;101984.53;;;22.27;22.17
64115;BME280;62188;35.640;139.748;2022-10-29T09:44:21;101986.18;;;22.02;22.05
64115;BME280;62188;35.640;139.748;2022-10-29T09:46:51;101986.74;;;22.48;21.95
64115;BME280;62188;35.640;139.748;2022-10-29T09:49:20;101989.36;;;21.98;22.04
64115;BME280;62188;35.640;139.748;2022-10-29T09:51:40;101992.74;;;22.23;22.16
64115;BME280;62188;35.640;139.748;2022-10-29T09:54:00;101991.29;;;22.20;22.15
64115;BME280;62188;35.640;139.748;2022-10-29T09:56:25;101993.80;;;22.13;22.16
64115;BME280;62188;35.640;139.748;2022-10-29T09:58:54;101992.75;;;21.98;22.25
64115;BME280;62188;35.640;139.748;2022-10-29T10:01:16;101992.91;;;21.91;22.31
64115;BME280;62188;35.640;139.748;2022-10-29T10:03:44;101995.85;;;21.90;22.25
64115;BME280;62188;35.640;139.748;2022-10-29T10:06:09;101997.93;;;22.17;22.25
64115;BME280;62188;35.640;139.748;2022-10-29T10:08:33;101997.22;;;21.93;22.21
64115;BME280;62188;35.640;139.748;2022-10-29T10:11:00;102000.56;;;22.20;22.62
64115;BME280;62188;35.640;139.748;2022-10-29T10:13:25;102003.67;;;22.20;22.68
64115;BME280;62188;35.640;139.748;2022-10-29T10:15:53;102000.11;;;21.92;22.36
64115;BME280;62188;35.640;139.748;2022-10-29T10:18:19;102003.37;;;21.92;22.30
64115;BME280;62188;35.640;139.748;2022-10-29T10:20:41;102002.56;;;21.91;22.52
64115;BME280;62188;35.640;139.748;2022-10-29T10:25:35;102006.80;;;21.83;22.55
64115;BME280;62188;35.640;139.748;2022-10-29T10:27:56;102009.12;;;21.80;22.49
64115;BME280;62188;35.640;139.748;2022-10-29T10:30:22;102012.34;;;21.74;22.70
64115;BME280;62188;35.640;139.748;2022-10-29T10:32:47;102019.73;;;21.63;22.78
64115;BME280;62188;35.640;139.748;2022-10-29T10:35:25;102021.97;;;21.81;22.77
64115;BME280;62188;35.640;139.748;2022-10-29T10:37:38;102024.96;;;21.44;23.02
64115;BME280;62188;35.640;139.748;2022-10-29T10:40:05;102029.16;;;21.63;23.17
64115;BME280;62188;35.640;139.748;2022-10-29T10:42:31;102033.62;;;21.58;23.31
64115;BME280;62188;35.640;139.748;2022-10-29T10:45:00;102034.55;;;21.58;23.59
64115;BME280;62188;35.640;139.748;2022-10-29T10:47:22;102034.68;;;21.61;23.63
64115;BME280;62188;35.640;139.748;2022-10-29T10:49:45;102031.11;;;21.49;23.61
64115;BME280;62188;35.640;139.748;2022-10-29T10:52:17;102038.35;;;21.88;23.93
64115;BME280;62188;35.640;139.748;2022-10-29T10:54:39;102040.81;;;21.37;23.93
64115;BME280;62188;35.640;139.748;2022-10-29T10:57:03;102043.99;;;21.36;24.17
64115;BME280;62188;35.640;139.748;2022-10-29T11:01:53;102044.15;;;21.34;24.24
64115;BME280;62188;35.640;139.748;2022-10-29T11:04:23;102044.11;;;21.49;24.52
64115;BME280;62188;35.640;139.748;2022-10-29T11:06:47;102043.78;;;21.22;24.61
64115;BME280;62188;35.640;139.748;2022-10-29T11:09:15;102044.76;;;20.92;24.67
64115;BME280;62188;35.640;139.748;2022-10-29T11:11:38;102044.24;;;21.15;24.98
64115;BME280;62188;35.640;139.748;2022-10-29T11:14:04;102048.05;;;21.13;25.19
64115;BME280;62188;35.640;139.748;2022-10-29T11:16:32;102048.68;;;21.11;25.27
64115;BME280;62188;35.640;139.748;2022-10-29T11:18:55;102047.33;;;20.95;25.41
64115;BME280;62188;35.640;139.748;2022-10-29T11:21:22;102053.31;;;20.92;25.54
64115;BME280;62188;35.640;139.748;2022-10-29T11:23:50;102054.33;;;21.16;25.69
64115;BME280;62188;35.640;139.748;2022-10-29T11:26:12;102059.09;;;20.85;25.79
64115;BME280;62188;35.640;139.748;2022-10-29T11:28:39;102055.86;;;20.80;25.82
64115;BME280;62188;35.640;139.748;2022-10-29T11:31:04;102056.62;;;20.75;25.90
64115;BME280;62188;35.640;139.748;2022-10-29T11:33:32;102053.37;;;20.85;26.10
64115;BME280;62188;35.640;139.748;2022-10-29T11:35:53;102052.49;;;20.90;26.15
64115;BME280;62188;35.640;139.748;2022-10-29T11:38:18;102052.59;;;20.90;26.09
64115;BME280;62188;35.640;139.748;2022-10-29T11:40:46;102055.63;;;21.11;26.20
64115;BME280;62188;35.640;139.748;2022-10-29T11:43:10;102060.71;;;21.05;26.35
64115;BME280;62188;35.640;139.748;2022-10-29T11:45:41;102065.72;;;21.05;26.35
64115;BME280;62188;35.640;139.748;2022-10-29T11:48:08;102060.57;;;20.93;26.12
64115;BME280;62188;35.640;139.748;2022-10-29T11:50:35;102065.72;;;21.07;26.26
64115;BME280;62188;35.640;139.748;2022-10-29T11:52:53;102065.24;;;20.93;26.30
64115;BME280;62188;35.640;139.748;2022-10-29T11:55:24;102064.98;;;21.06;26.33
64115;BME280;62188;35.640;139.748;2022-10-29T11:57:44;102066.98;;;20.80;26.45
64115;BME280;62188;35.640;139.748;2022-10-29T12:00:13;102067.88;;;20.60;26.49
64115;BME280;62188;35.640;139.748;2022-10-29T12:02:42;102069.65;;;20.85;26.44
64115;BME280;62188;35.640;139.748;2022-10-29T12:04:59;102075.23;;;20.58;26.28
64115;BME280;62188;35.640;139.748;2022-10-29T12:07:31;102079.50;;;20.57;26.55
64115;BME280;62188;35.640;139.748;2022-10-29T12:12:17;102081.25;;;20.83;26.46
64115;BME280;62188;35.640;139.748;2022-10-29T12:14:43;102086.41;;;21.00;26.54
64115;BME280;62188;35.640;139.748;2022-10-29T12:17:09;102090.87;;;20.42;26.48
64115;BME280;62188;35.640;139.748;2022-10-29T12:19:39;102088.16;;;20.70;26.53
64115;BME280;62188;35.640;139.748;2022-10-29T12:21:58;102089.28;;;20.77;26.69
64115;BME280;62188;35.640;139.748;2022-10-29T12:24:32;102092.01;;;20.55;26.72
64115;BME280;62188;35.640;139.748;2022-10-29T12:26:50;102089.58;;;20.74;26.51
64115;BME280;62188;35.640;139.748;2022-10-29T12:29:18;102090.43;;;20.70;26.46
64115;BME280;62188;35.640;139.748;2022-10-29T12:31:40;102090.89;;;20.41;26.07
64115;BME280;62188;35.640;139.748;2022-10-29T12:34:07;102092.12;;;20.35;25.83
64115;BME280;62188;35.640;139.748;2022-10-29T12:36:33;102094.29;;;20.30;25.82
64115;BME280;62188;35.640;139.748;2022-10-29T12:38:56;102090.92;;;20.26;25.83